Time;durP1;ratioP1;P1;durP2;ratioP2;P2;SDS_P1;SDS_P2;PMS_P1;PMS_P2;Temp;Humidity;BMP_temperature;BMP_pressure;BME280_temperature;BME280_humidity;BME280_pressure;Samples;Min_cycle;Max_cycle;Signal;HPM_P1;HPM_P2
2022/01/22 00:02:06;;;;;;;7.63;5.87;;;3.50;99.90;;;;;;5093530;28;20494;-61
2022/01/22 00:04:33;;;;;;;9.93;7.67;;;3.50;99.90;;;;;;5093493;28;20546;-61
2022/01/22 00:07:02;;;;;;;8.43;7.60;;;3.50;99.90;;;;;;5093448;28;20443;-61
2022/01/22 00:09:36;;;;;;;8.60;6.93;;;3.60;99.90;;;;;;5093466;28;20462;-61
2022/01/22 00:12:06;;;;;;;11.97;7.00;;;3.70;99.90;;;;;;5093185;28;20483;-61
2022/01/22 00:14:33;;;;;;;10.10;6.67;;;3.70;99.90;;;;;;5094282;28;20454;-61
2022/01/22 00:17:02;;;;;;;8.23;6.53;;;3.80;99.90;;;;;;5093568;28;20439;-61
2022/01/22 00:19:31;;;;;;;8.40;6.50;;;3.80;99.90;;;;;;5093448;28;20803;-61
2022/01/22 00:21:59;;;;;;;5.87;5.27;;;3.80;99.90;;;;;;5093290;28;20888;-61
2022/01/22 00:24:26;;;;;;;7.37;5.53;;;3.80;99.90;;;;;;5093506;28;20456;-61
2022/01/22 00:26:53;;;;;;;6.60;5.57;;;3.90;99.90;;;;;;5093002;28;20542;-61
2022/01/22 00:29:20;;;;;;;5.43;4.90;;;3.90;99.90;;;;;;5093217;28;20538;-60
2022/01/22 00:31:47;;;;;;;8.43;7.73;;;3.80;99.90;;;;;;5093174;28;20472;-61
2022/01/22 00:34:14;;;;;;;9.00;7.40;;;3.70;99.90;;;;;;5093257;28;20854;-61
2022/01/22 00:36:43;;;;;;;9.57;5.10;;;3.80;99.90;;;;;;5093492;28;20447;-61
2022/01/22 00:39:10;;;;;;;6.23;5.30;;;3.70;99.90;;;;;;5093028;28;20455;-61
2022/01/22 00:41:37;;;;;;;5.50;5.00;;;3.70;99.90;;;;;;5092768;28;20856;-62
2022/01/22 00:44:05;;;;;;;7.53;5.77;;;3.60;99.90;;;;;;5093139;28;20972;-61
2022/01/22 00:46:32;;;;;;;5.40;4.93;;;3.80;99.90;;;;;;5093095;28;21003;-61
2022/01/22 00:48:59;;;;;;;6.60;6.00;;;3.70;99.90;;;;;;5092809;28;20434;-61
2022/01/22 00:51:27;;;;;;;6.23;5.63;;;3.70;99.90;;;;;;5092822;28;20459;-60
2022/01/22 00:53:55;;;;;;;5.80;5.33;;;3.70;99.90;;;;;;5093531;28;20510;-60
2022/01/22 00:56:22;;;;;;;7.40;5.77;;;3.60;99.90;;;;;;5093016;28;20920;-60
2022/01/22 00:58:49;;;;;;;6.30;5.80;;;3.70;99.90;;;;;;5093478;28;20452;-61
2022/01/22 01:01:17;;;;;;;7.57;5.80;;;3.60;99.90;;;;;;5093217;28;20468;-61
2022/01/22 01:03:44;;;;;;;5.30;4.83;;;3.70;99.90;;;;;;5093010;28;20451;-61
2022/01/22 01:06:11;;;;;;;7.90;5.70;;;3.60;99.90;;;;;;5092745;28;20451;-61
2022/01/22 01:08:38;;;;;;;6.40;5.13;;;3.70;99.90;;;;;;5093049;28;20451;-61
2022/01/22 01:11:10;;;;;;;6.40;5.70;;;3.60;99.90;;;;;;5093000;28;20495;-61
2022/01/22 01:13:42;;;;;;;6.23;5.27;;;3.60;99.90;;;;;;5092726;28;21000;-61
2022/01/22 01:16:20;;;;;;;6.00;5.40;;;3.60;99.90;;;;;;5097383;28;20602;-61
2022/01/22 01:32:40;;;;;;;6.93;6.33;;;3.80;99.90;;;;;;5075051;28;20482;-61
2022/01/22 01:35:08;;;;;;;7.37;6.33;;;3.80;99.90;;;;;;5096782;28;20431;-61
2022/01/22 01:37:36;;;;;;;6.27;5.20;;;3.90;99.90;;;;;;5096531;28;20486;-61
2022/01/22 01:40:05;;;;;;;7.30;6.00;;;3.90;99.90;;;;;;5096347;28;20447;-61
2022/01/22 01:42:41;;;;;;;5.83;5.20;;;3.90;99.90;;;;;;5096273;28;20489;-61
2022/01/22 01:45:09;;;;;;;8.10;7.20;;;4.00;99.90;;;;;;5096609;28;20470;-61
2022/01/22 01:47:39;;;;;;;7.33;6.63;;;3.90;99.90;;;;;;5096449;28;20435;-61
2022/01/22 01:50:07;;;;;;;14.10;7.07;;;4.00;99.90;;;;;;5096159;28;20941;-61
2022/01/22 01:52:41;;;;;;;8.97;7.03;;;4.00;99.90;;;;;;5095980;28;20493;-61
2022/01/22 01:55:13;;;;;;;6.80;6.10;;;4.00;99.90;;;;;;5095991;28;20458;-61
2022/01/22 01:57:42;;;;;;;9.40;7.13;;;4.00;99.90;;;;;;5096177;28;20440;-61
2022/01/22 02:00:19;;;;;;;11.73;7.40;;;4.10;99.90;;;;;;5096229;28;20463;-61
2022/01/22 02:02:47;;;;;;;13.03;7.73;;;3.90;99.90;;;;;;5096008;28;20506;-61
2022/01/22 02:05:15;;;;;;;8.40;7.60;;;4.00;99.90;;;;;;5095946;28;20431;-61
2022/01/22 02:07:43;;;;;;;10.00;8.43;;;4.00;99.90;;;;;;5095946;28;20470;-61
2022/01/22 02:10:17;;;;;;;9.27;7.10;;;4.00;99.90;;;;;;5096082;28;20455;-60
2022/01/22 02:23:52;;;;;;;9.07;7.73;;;4.20;99.90;;;;;;5095587;28;20411;-61
2022/01/22 02:26:19;;;;;;;7.67;6.90;;;4.30;99.90;;;;;;5094640;28;20458;-61
2022/01/22 02:28:49;;;;;;;10.63;8.27;;;4.20;99.90;;;;;;5095572;28;20767;-61
2022/01/22 02:31:24;;;;;;;10.00;7.63;;;4.20;99.90;;;;;;5095581;28;20632;-61
2022/01/22 02:33:57;;;;;;;11.27;7.67;;;4.10;99.90;;;;;;5095623;28;20974;-61
2022/01/22 02:36:32;;;;;;;9.53;6.87;;;4.10;99.90;;;;;;5095549;28;20432;-61
2022/01/22 02:39:06;;;;;;;13.10;8.43;;;4.10;99.90;;;;;;5095388;28;20466;-61
2022/01/22 02:41:35;;;;;;;7.67;6.80;;;4.10;99.90;;;;;;5093967;28;20519;-61
2022/01/22 02:44:02;;;;;;;7.93;7.00;;;4.10;99.90;;;;;;5095186;28;20500;-61
2022/01/22 02:46:31;;;;;;;8.13;6.43;;;4.00;99.90;;;;;;5094990;28;20938;-61
2022/01/22 02:48:59;;;;;;;12.07;7.60;;;4.00;99.90;;;;;;5095174;28;20448;-61
2022/01/22 02:51:28;;;;;;;12.20;8.10;;;4.20;99.90;;;;;;5095008;28;20470;-62
2022/01/22 02:53:56;;;;;;;11.73;8.63;;;4.00;99.90;;;;;;5094927;28;20479;-61
2022/01/22 02:56:24;;;;;;;9.00;7.47;;;4.10;99.90;;;;;;5095178;28;20462;-61
2022/01/22 02:58:52;;;;;;;9.07;8.17;;;4.10;99.90;;;;;;5094835;28;20941;-61
2022/01/22 03:01:19;;;;;;;7.80;7.00;;;4.00;99.90;;;;;;5094821;28;20467;-61
2022/01/22 03:03:47;;;;;;;10.20;7.93;;;4.00;99.90;;;;;;5094772;28;20490;-61
2022/01/22 03:06:14;;;;;;;10.23;8.03;;;4.00;99.90;;;;;;5094699;28;20447;-61
2022/01/22 03:08:45;;;;;;;13.17;7.80;;;4.20;99.90;;;;;;5094956;28;20798;-61
2022/01/22 03:11:19;;;;;;;8.40;7.60;;;4.20;99.90;;;;;;5094492;28;20463;-61
2022/01/22 03:17:08;;;;;;;10.73;6.70;;;3.90;99.90;;;;;;5094438;28;20932;-61
2022/01/22 03:19:58;;;;;;;9.80;8.57;;;4.10;99.90;;;;;;5094632;28;20444;-62
2022/01/22 03:22:32;;;;;;;10.80;8.30;;;4.10;99.90;;;;;;5094420;28;20981;-61
2022/01/22 03:27:50;;;;;;;10.87;8.77;;;4.30;99.90;;;;;;5055432;28;20441;-61
2022/01/22 03:30:18;;;;;;;10.47;9.20;;;4.30;99.90;;;;;;5094457;28;20427;-62
2022/01/22 03:32:48;;;;;;;12.10;9.17;;;4.20;99.90;;;;;;5094188;28;20444;-62
2022/01/22 03:35:26;;;;;;;9.23;7.40;;;4.10;99.90;;;;;;5094301;28;20769;-61
2022/01/22 03:37:55;;;;;;;10.60;8.40;;;4.20;99.90;;;;;;5094407;28;20427;-61
2022/01/22 03:40:27;;;;;;;11.23;7.60;;;4.20;99.90;;;;;;5094138;28;20583;-61
2022/01/22 03:42:55;;;;;;;9.57;8.70;;;4.30;99.90;;;;;;5094021;28;21016;-61
2022/01/22 03:45:25;;;;;;;11.50;8.87;;;4.30;99.90;;;;;;5094060;28;20444;-62
2022/01/22 03:47:52;;;;;;;11.37;8.50;;;4.40;99.90;;;;;;5093945;28;20758;-61
2022/01/22 03:50:20;;;;;;;9.70;8.23;;;4.20;99.90;;;;;;5093619;28;20447;-61
2022/01/22 03:52:48;;;;;;;13.50;9.10;;;4.20;99.90;;;;;;5094193;28;20534;-62
2022/01/22 03:55:28;;;;;;;10.13;8.53;;;4.30;99.90;;;;;;5093766;28;20443;-61
2022/01/22 03:57:56;;;;;;;9.67;8.10;;;4.30;99.90;;;;;;5094079;28;20850;-61
2022/01/22 04:00:24;;;;;;;9.83;7.90;;;4.20;99.90;;;;;;5093830;28;20526;-61
2022/01/22 04:05:33;;;;;;;11.80;8.33;;;4.20;99.90;;;;;;5091568;28;20431;-61
2022/01/22 04:08:10;;;;;;;9.63;8.30;;;4.30;99.90;;;;;;5093699;28;20443;-61
2022/01/22 04:10:37;;;;;;;14.00;7.30;;;4.30;99.90;;;;;;5093784;28;20489;-61
2022/01/22 04:13:10;;;;;;;8.13;7.43;;;4.20;99.90;;;;;;5093722;28;20475;-61
2022/01/22 04:15:39;;;;;;;10.50;8.13;;;4.20;99.90;;;;;;5093488;28;20431;-61
2022/01/22 04:26:31;;;;;;;10.40;7.47;;;4.30;99.90;;;;;;5093292;28;21004;-61
2022/01/22 04:29:00;;;;;;;10.10;8.77;;;4.20;99.90;;;;;;5093110;28;20510;-61
2022/01/22 04:31:27;;;;;;;9.33;8.07;;;4.20;99.90;;;;;;5093028;28;20459;-62
2022/01/22 04:33:54;;;;;;;11.13;8.00;;;4.20;99.90;;;;;;5093321;28;20502;-61
2022/01/22 04:36:22;;;;;;;13.37;7.90;;;4.30;99.90;;;;;;5093005;28;20439;-61
2022/01/22 04:38:49;;;;;;;10.60;7.73;;;4.20;99.90;;;;;;5093139;28;20796;-61
2022/01/22 04:41:16;;;;;;;10.53;8.50;;;4.30;99.90;;;;;;5093090;28;20498;-61
2022/01/22 04:43:45;;;;;;;13.87;7.07;;;4.30;99.90;;;;;;5092887;28;20878;-61
2022/01/22 04:46:20;;;;;;;9.27;6.60;;;4.20;99.90;;;;;;5092976;28;20486;-61
2022/01/22 04:49:04;;;;;;;12.70;7.53;;;4.30;99.90;;;;;;5093067;28;20476;-61
2022/01/22 04:57:06;;;;;;;9.23;8.13;;;4.30;99.90;;;;;;5092941;28;20411;-61
2022/01/22 04:59:34;;;;;;;15.70;8.50;;;4.40;99.90;;;;;;5093179;28;20444;-61
2022/01/22 05:02:02;;;;;;;9.77;8.10;;;4.50;99.90;;;;;;5092650;28;20956;-61
2022/01/22 05:04:29;;;;;;;12.00;8.10;;;4.60;99.90;;;;;;5092928;28;20534;-61
2022/01/22 05:06:56;;;;;;;9.47;7.63;;;4.70;99.90;;;;;;5093111;28;20453;-61
2022/01/22 05:09:23;;;;;;;9.43;8.37;;;4.60;99.90;;;;;;5092961;28;20827;-61
2022/01/22 05:11:51;;;;;;;8.87;7.37;;;4.60;99.90;;;;;;5092890;28;20467;-61
2022/01/22 05:14:18;;;;;;;9.30;8.47;;;4.40;99.90;;;;;;5092950;28;20475;-61
2022/01/22 05:16:45;;;;;;;10.23;7.77;;;4.40;99.90;;;;;;5092616;28;20787;-61
2022/01/22 05:19:19;;;;;;;11.70;9.20;;;4.40;99.90;;;;;;5092872;28;20512;-61
2022/01/22 05:21:48;;;;;;;12.20;8.10;;;4.50;99.90;;;;;;5092625;28;20478;-62
2022/01/22 05:24:20;;;;;;;10.90;7.87;;;4.50;99.90;;;;;;5092854;28;20808;-61
2022/01/22 05:27:16;;;;;;;9.90;8.00;;;4.30;99.90;;;;;;5092536;28;20436;-61
2022/01/22 05:30:03;;;;;;;9.67;8.67;;;4.30;99.90;;;;;;5092852;28;20428;-61
2022/01/22 05:32:38;;;;;;;12.70;8.77;;;4.30;99.90;;;;;;5092334;28;20467;-61
2022/01/22 05:37:52;;;;;;;10.83;9.47;;;4.50;99.90;;;;;;5092528;28;20430;-61
2022/01/22 05:40:19;;;;;;;10.00;8.33;;;4.50;99.90;;;;;;5093843;28;20558;-61
2022/01/22 05:42:46;;;;;;;15.60;8.00;;;4.50;99.90;;;;;;5111474;28;20541;-61
2022/01/22 05:45:13;;;;;;;8.93;8.03;;;4.40;99.90;;;;;;5093026;28;20475;-61
2022/01/22 05:47:41;;;;;;;12.03;8.03;;;4.30;99.90;;;;;;5092267;28;20455;-62
2022/01/22 05:50:23;;;;;;;14.23;7.70;;;4.40;99.90;;;;;;5092568;28;20447;-61
2022/01/22 05:52:56;;;;;;;10.10;8.07;;;4.50;99.90;;;;;;5092452;28;20799;-61
2022/01/22 05:59:35;;;;;;;10.27;8.47;;;4.30;99.90;;;;;;5092311;28;20467;-61
2022/01/22 06:01:16;;;;;;;9.90;9.00;;;4.40;99.90;;;;;;5093518;28;20964;-61
2022/01/22 06:03:44;;;;;;;12.03;8.00;;;4.50;99.90;;;;;;5095976;28;20439;-61
2022/01/22 06:06:13;;;;;;;13.23;9.47;;;4.40;99.90;;;;;;5095796;28;20830;-61
2022/01/22 06:08:46;;;;;;;9.90;7.60;;;4.30;99.90;;;;;;5095870;28;20470;-60
2022/01/22 06:11:21;;;;;;;12.73;9.27;;;4.30;99.90;;;;;;5096190;28;20502;-61
2022/01/22 06:13:48;;;;;;;9.13;6.80;;;4.30;99.90;;;;;;5096202;28;20470;-61
2022/01/22 06:16:18;;;;;;;9.77;7.67;;;4.40;99.90;;;;;;5095982;28;20529;-61
2022/01/22 06:18:46;;;;;;;10.20;8.03;;;4.40;99.90;;;;;;5095855;28;20478;-61
2022/01/22 06:21:14;;;;;;;11.80;7.93;;;4.40;99.90;;;;;;5095607;28;20467;-61
2022/01/22 06:23:43;;;;;;;13.70;8.10;;;4.40;99.90;;;;;;5095649;28;20621;-61
2022/01/22 06:26:11;;;;;;;8.80;7.90;;;4.20;99.90;;;;;;5095336;28;20443;-61
2022/01/22 06:28:38;;;;;;;11.10;8.40;;;4.20;99.90;;;;;;5095464;28;20943;-61
2022/01/22 06:31:06;;;;;;;8.80;7.70;;;4.20;99.90;;;;;;5095252;28;20455;-61
2022/01/22 06:33:33;;;;;;;11.13;6.20;;;4.30;99.90;;;;;;5095438;28;20440;-61
2022/01/22 06:36:00;;;;;;;9.10;8.27;;;4.30;99.90;;;;;;5095346;28;20552;-61
2022/01/22 06:38:28;;;;;;;12.30;7.83;;;4.40;99.90;;;;;;5095215;28;20926;-61
2022/01/22 06:43:40;;;;;;;10.03;7.77;;;4.30;99.90;;;;;;5094864;28;20475;-61
2022/01/22 06:46:07;;;;;;;10.33;7.30;;;4.30;99.90;;;;;;5095131;28;20459;-61
2022/01/22 06:48:34;;;;;;;14.80;7.60;;;4.30;99.90;;;;;;5094993;28;20447;-61
2022/01/22 06:51:02;;;;;;;11.13;8.83;;;4.20;99.90;;;;;;5095049;28;20471;-62
2022/01/22 06:53:35;;;;;;;12.23;8.23;;;4.30;99.90;;;;;;5095262;28;20439;-62
2022/01/22 06:56:03;;;;;;;7.60;6.50;;;4.30;99.90;;;;;;5095431;28;20439;-62
2022/01/22 06:58:31;;;;;;;8.20;7.13;;;4.40;99.90;;;;;;5094847;28;20542;-61
2022/01/22 07:00:58;;;;;;;9.90;7.57;;;4.40;99.90;;;;;;5094674;28;20537;-62
2022/01/22 07:03:25;;;;;;;10.30;7.70;;;4.40;99.90;;;;;;5094955;28;20436;-60
2022/01/22 07:05:52;;;;;;;16.50;7.87;;;4.40;99.90;;;;;;5095030;28;20801;-61
2022/01/22 07:08:20;;;;;;;7.70;6.90;;;4.50;99.90;;;;;;5094670;28;20458;-61
2022/01/22 07:10:48;;;;;;;12.67;7.73;;;4.60;99.90;;;;;;5095217;28;20471;-61
2022/01/22 07:13:15;;;;;;;8.80;7.30;;;4.50;99.90;;;;;;5094262;28;20448;-61
2022/01/22 07:15:42;;;;;;;8.07;7.03;;;4.50;99.90;;;;;;5094743;28;20475;-61
2022/01/22 07:18:12;;;;;;;10.40;7.77;;;4.60;99.90;;;;;;5094883;28;20542;-61
2022/01/22 07:20:41;;;;;;;10.67;8.03;;;4.30;99.90;;;;;;5094480;28;20474;-62
2022/01/22 07:23:16;;;;;;;13.23;8.80;;;4.40;99.90;;;;;;5094384;28;20506;-61
2022/01/22 07:25:44;;;;;;;8.97;7.47;;;4.40;99.90;;;;;;5094753;28;20945;-61
2022/01/22 07:28:13;;;;;;;10.30;7.90;;;4.50;99.90;;;;;;5094588;28;20451;-61
2022/01/22 07:30:40;;;;;;;9.43;7.73;;;4.40;99.90;;;;;;5094485;28;20472;-61
2022/01/22 07:33:08;;;;;;;8.53;7.50;;;4.50;99.90;;;;;;5094467;28;20444;-61
2022/01/22 07:35:36;;;;;;;9.17;8.27;;;4.50;99.90;;;;;;5094231;28;20479;-62
2022/01/22 07:38:04;;;;;;;9.60;7.93;;;4.60;99.90;;;;;;5094377;28;20497;-61
2022/01/22 07:40:31;;;;;;;12.10;8.43;;;4.60;99.90;;;;;;5093948;28;20534;-61
2022/01/22 07:42:59;;;;;;;12.77;8.90;;;4.70;99.90;;;;;;5094070;28;20470;-61
2022/01/22 07:45:28;;;;;;;14.10;9.00;;;4.70;99.90;;;;;;5094016;28;20807;-61
2022/01/22 07:47:55;;;;;;;9.97;8.97;;;4.70;99.90;;;;;;5093841;28;20451;-61
2022/01/22 07:50:22;;;;;;;8.83;7.20;;;4.60;99.90;;;;;;5094008;28;20447;-61
2022/01/22 07:52:49;;;;;;;9.83;8.50;;;4.60;99.90;;;;;;5094107;28;20454;-61
2022/01/22 07:55:19;;;;;;;11.30;8.37;;;4.60;99.90;;;;;;5093860;28;20839;-61
2022/01/22 07:57:46;;;;;;;11.70;8.60;;;4.70;99.90;;;;;;5093508;28;20448;-62
2022/01/22 08:00:16;;;;;;;11.83;9.00;;;4.80;99.90;;;;;;5093696;28;21001;-61
2022/01/22 08:02:45;;;;;;;10.37;8.23;;;4.60;99.90;;;;;;5093734;28;20558;-60
2022/01/22 08:05:12;;;;;;;9.67;7.23;;;4.60;99.90;;;;;;5093391;28;20454;-61
2022/01/22 08:07:43;;;;;;;10.30;9.00;;;4.50;99.90;;;;;;5093872;28;20461;-58
2022/01/22 08:10:12;;;;;;;11.83;8.43;;;4.60;99.90;;;;;;5093706;28;20456;-61
2022/01/22 08:12:40;;;;;;;10.53;7.63;;;4.70;99.90;;;;;;5093331;28;20467;-61
2022/01/22 08:15:09;;;;;;;9.27;8.23;;;4.70;99.90;;;;;;5093200;28;20483;-61
2022/01/22 08:17:36;;;;;;;8.00;7.20;;;4.70;99.90;;;;;;5093719;28;20450;-61
2022/01/22 08:20:07;;;;;;;9.17;7.83;;;4.70;99.90;;;;;;5093351;28;20832;-58
2022/01/22 08:22:34;;;;;;;12.90;7.67;;;4.60;99.90;;;;;;5093438;28;20494;-56
2022/01/22 08:25:02;;;;;;;11.50;9.00;;;4.60;99.90;;;;;;5092616;28;20793;-60
2022/01/22 08:27:41;;;;;;;15.50;8.23;;;4.60;99.90;;;;;;5093369;28;20453;-61
2022/01/22 08:30:12;;;;;;;9.53;7.60;;;4.60;99.90;;;;;;5093369;28;20844;-62
2022/01/22 08:32:58;;;;;;;13.17;7.60;;;4.70;99.90;;;;;;5092899;28;20468;-61
2022/01/22 08:38:11;;;;;;;13.70;8.70;;;4.60;99.90;;;;;;5092979;28;20500;-57
2022/01/22 08:40:40;;;;;;;9.13;8.27;;;4.50;99.90;;;;;;5087970;28;20985;-62
2022/01/22 08:43:07;;;;;;;13.73;8.07;;;4.50;99.90;;;;;;5089041;28;20444;-62
2022/01/22 08:45:38;;;;;;;11.77;8.50;;;4.50;99.90;;;;;;5074394;28;20455;-55
2022/01/22 08:48:05;;;;;;;11.30;9.33;;;4.40;99.90;;;;;;5078558;28;20447;-58
2022/01/22 08:50:35;;;;;;;11.83;10.50;;;4.30;99.90;;;;;;5086127;28;20444;-59
2022/01/22 08:53:02;;;;;;;12.27;7.80;;;4.40;99.90;;;;;;5087540;28;21015;-59
2022/01/22 08:55:29;;;;;;;13.43;9.30;;;4.40;99.90;;;;;;5080119;28;20468;-60
2022/01/22 08:57:56;;;;;;;9.57;8.37;;;4.60;99.90;;;;;;5075601;28;20452;-59
2022/01/22 09:00:24;;;;;;;11.70;7.53;;;4.50;99.90;;;;;;5078915;28;20439;-60
2022/01/22 09:02:51;;;;;;;9.60;8.20;;;4.50;99.90;;;;;;5082860;28;20447;-61
2022/01/22 09:05:19;;;;;;;10.77;9.13;;;4.70;99.90;;;;;;5089726;28;20508;-60
2022/01/22 09:07:52;;;;;;;9.23;8.30;;;4.60;99.90;;;;;;5072871;28;20464;-59
2022/01/22 09:10:21;;;;;;;9.97;8.37;;;4.60;99.90;;;;;;5075079;28;20479;-56
2022/01/22 09:12:50;;;;;;;9.77;8.77;;;4.60;99.90;;;;;;5078386;28;20451;-59
2022/01/22 09:15:17;;;;;;;12.37;7.93;;;4.60;99.90;;;;;;5078120;28;20478;-60
2022/01/22 09:17:47;;;;;;;8.93;7.80;;;4.40;99.90;;;;;;5071840;28;20491;-58
2022/01/22 09:20:30;;;;;;;12.87;9.17;;;4.40;99.90;;;;;;5072212;28;20437;-57
2022/01/22 09:22:59;;;;;;;10.07;8.33;;;4.50;99.90;;;;;;5075475;28;20433;-53
2022/01/22 09:25:26;;;;;;;9.07;7.47;;;4.60;99.90;;;;;;5076516;28;21057;-55
2022/01/22 09:27:53;;;;;;;12.10;9.30;;;4.50;99.90;;;;;;5076048;28;20455;-56
2022/01/22 09:30:24;;;;;;;12.40;8.13;;;4.60;99.90;;;;;;5081208;28;20511;-55
2022/01/22 09:32:51;;;;;;;12.60;7.70;;;4.70;99.90;;;;;;5080059;28;20450;-64
2022/01/22 09:35:19;;;;;;;12.33;8.40;;;4.70;99.90;;;;;;5082395;28;20510;-55
2022/01/22 09:37:46;;;;;;;9.10;7.90;;;4.80;99.90;;;;;;5084494;28;20455;-58
2022/01/22 09:40:15;;;;;;;11.83;8.83;;;4.70;99.90;;;;;;5085008;28;20459;-57
2022/01/22 09:42:42;;;;;;;13.70;9.13;;;4.80;99.90;;;;;;5080631;28;20479;-52
2022/01/22 09:45:12;;;;;;;12.20;9.13;;;4.70;99.90;;;;;;5087926;28;20482;-57
2022/01/22 09:47:43;;;;;;;12.60;8.03;;;4.80;99.90;;;;;;5093099;28;20457;-60
2022/01/22 09:50:11;;;;;;;13.40;8.97;;;4.70;99.90;;;;;;5096573;28;20450;-54
2022/01/22 09:52:39;;;;;;;14.90;9.83;;;4.80;99.90;;;;;;5094786;28;20491;-56
2022/01/22 09:55:07;;;;;;;12.20;9.17;;;4.90;99.90;;;;;;5088075;28;20486;-58
2022/01/22 09:57:37;;;;;;;11.27;8.77;;;4.90;99.90;;;;;;5091524;28;20455;-56
2022/01/22 10:00:06;;;;;;;12.07;9.47;;;4.90;99.90;;;;;;5094257;28;20459;-63
2022/01/22 10:02:40;;;;;;;8.97;8.00;;;5.10;99.90;;;;;;5095057;28;20847;-56
2022/01/22 10:05:27;;;;;;;13.00;9.03;;;5.10;99.90;;;;;;5092028;28;20444;-60
2022/01/22 10:07:54;;;;;;;12.93;8.30;;;5.10;99.90;;;;;;5090692;28;20482;-66
2022/01/22 10:10:22;;;;;;;13.20;8.20;;;5.10;99.90;;;;;;5090475;28;20485;-58
2022/01/22 10:12:52;;;;;;;12.17;8.10;;;5.20;99.90;;;;;;5095663;28;20545;-57
2022/01/22 10:15:21;;;;;;;11.17;8.47;;;5.20;99.90;;;;;;5097313;28;20489;-58
2022/01/22 10:17:49;;;;;;;11.37;8.03;;;5.10;99.90;;;;;;5095414;28;20460;-55
2022/01/22 10:20:39;;;;;;;10.43;6.93;;;5.10;99.90;;;;;;5091728;28;20450;-58
2022/01/22 10:23:10;;;;;;;8.37;6.83;;;5.20;99.90;;;;;;5089668;28;20498;-61
2022/01/22 10:25:42;;;;;;;10.37;7.40;;;5.10;99.90;;;;;;5093490;28;20446;-59
2022/01/22 10:28:14;;;;;;;9.80;6.30;;;5.00;99.90;;;;;;5095564;28;20940;-55
2022/01/22 10:30:44;;;;;;;8.90;6.20;;;5.00;99.90;;;;;;5092606;28;21168;-58
2022/01/22 10:33:29;;;;;;;7.80;6.40;;;4.90;99.90;;;;;;5093262;28;20528;-55
2022/01/22 10:36:09;;;;;;;8.47;7.67;;;5.10;99.90;;;;;;5093298;28;20477;-55
2022/01/22 10:38:42;;;;;;;12.63;7.60;;;4.90;99.90;;;;;;5089200;28;20446;-58
2022/01/22 10:41:09;;;;;;;11.87;6.13;;;5.00;99.90;;;;;;5092699;28;20467;-56
2022/01/22 10:43:42;;;;;;;9.53;7.73;;;5.00;99.90;;;;;;5096759;28;20479;-56
2022/01/22 10:46:18;;;;;;;9.43;6.80;;;5.10;99.90;;;;;;5087796;28;21012;-55
2022/01/22 10:48:55;;;;;;;10.80;6.87;;;5.10;99.90;;;;;;5093189;28;20522;-58
2022/01/22 10:51:22;;;;;;;8.47;7.67;;;5.20;99.90;;;;;;5097158;28;20467;-57
2022/01/22 10:53:51;;;;;;;9.10;7.40;;;5.20;99.90;;;;;;5084841;28;20865;-51
2022/01/22 10:56:22;;;;;;;11.43;7.97;;;5.40;99.90;;;;;;5090697;28;20540;-55
2022/01/22 10:58:57;;;;;;;9.17;8.23;;;5.30;99.90;;;;;;5092412;28;20452;-58
2022/01/22 11:01:27;;;;;;;7.40;6.70;;;5.20;99.90;;;;;;5091028;28;20881;-60
2022/01/22 11:04:06;;;;;;;8.23;7.17;;;5.30;99.90;;;;;;5091502;28;20879;-59
2022/01/22 11:06:33;;;;;;;19.70;7.40;;;5.30;99.90;;;;;;5080093;28;20462;-55
2022/01/22 11:09:00;;;;;;;7.50;6.57;;;5.30;99.90;;;;;;5088709;28;20560;-61
2022/01/22 11:11:29;;;;;;;8.47;6.67;;;5.40;99.90;;;;;;5088232;28;20469;-57
2022/01/22 11:13:58;;;;;;;7.77;6.40;;;5.30;99.90;;;;;;5086955;28;20471;-58
2022/01/22 11:16:27;;;;;;;10.17;7.60;;;5.30;99.90;;;;;;5090662;28;21068;-56
2022/01/22 11:18:56;;;;;;;8.13;6.93;;;5.20;99.90;;;;;;5087766;28;20450;-55
2022/01/22 11:21:25;;;;;;;8.20;6.60;;;5.10;99.90;;;;;;5091996;28;20482;-58
2022/01/22 11:23:53;;;;;;;9.60;7.50;;;5.00;99.90;;;;;;5092107;28;20446;-58
2022/01/22 11:26:21;;;;;;;12.37;7.00;;;5.10;99.90;;;;;;5085196;28;20513;-60
2022/01/22 11:28:53;;;;;;;9.57;7.60;;;5.20;99.90;;;;;;5092212;28;21300;-64
2022/01/22 11:31:25;;;;;;;9.53;7.67;;;5.10;99.90;;;;;;5088259;28;20470;-61
2022/01/22 11:33:54;;;;;;;8.93;7.37;;;5.30;99.90;;;;;;5086394;28;20951;-61
2022/01/22 11:36:27;;;;;;;9.77;8.13;;;5.30;99.90;;;;;;5093556;28;20479;-57
2022/01/22 11:38:57;;;;;;;8.07;7.27;;;5.40;99.90;;;;;;5090340;28;20527;-64
2022/01/22 11:41:25;;;;;;;8.63;7.73;;;5.40;99.90;;;;;;5086499;22;20503;-67
2022/01/22 11:44:05;;;;;;;6.80;5.87;;;5.50;99.90;;;;;;5065682;28;20847;-62
2022/01/22 11:46:36;;;;;;;7.67;6.90;;;5.50;99.90;;;;;;5063374;28;20448;-58
2022/01/22 11:49:18;;;;;;;7.30;6.60;;;5.70;99.90;;;;;;5064435;28;20476;-57
2022/01/22 11:51:47;;;;;;;6.17;5.57;;;5.60;99.90;;;;;;5071267;28;20475;-59
2022/01/22 11:54:16;;;;;;;7.40;6.70;;;5.60;99.90;;;;;;5082779;28;20458;-57
2022/01/22 11:56:49;;;;;;;8.20;5.80;;;5.70;99.90;;;;;;5081594;28;21332;-59
2022/01/22 11:59:24;;;;;;;6.90;6.20;;;5.70;99.90;;;;;;5079617;28;20476;-66
2022/01/22 12:02:02;;;;;;;8.20;5.83;;;5.70;99.90;;;;;;5084798;22;20531;-60
2022/01/22 12:04:45;;;;;;;12.63;7.23;;;5.70;99.90;;;;;;5061946;28;20448;-57
2022/01/22 12:07:15;;;;;;;7.70;5.90;;;5.70;99.90;;;;;;5062144;28;20468;-57
2022/01/22 12:09:52;;;;;;;8.83;7.20;;;5.90;99.90;;;;;;5062814;28;20916;-57
2022/01/22 12:15:12;;;;;;;6.00;5.40;;;5.70;99.90;;;;;;5062849;28;20431;-57
2022/01/22 12:18:17;;;;;;;6.63;5.93;;;5.80;99.90;;;;;;5062559;28;20462;-57
2022/01/22 12:23:55;;;;;;;8.33;5.90;;;5.60;99.90;;;;;;5060977;28;20981;-59
2022/01/22 12:26:53;;;;;;;7.50;5.67;;;5.40;99.90;;;;;;5062087;28;20502;-59
2022/01/22 12:29:44;;;;;;;7.07;5.30;;;5.50;99.90;;;;;;5018462;28;20455;-57
2022/01/22 12:32:27;;;;;;;8.87;6.70;;;5.60;99.90;;;;;;5057284;28;20483;-57
2022/01/22 12:35:12;;;;;;;7.23;6.53;;;5.70;99.90;;;;;;5058073;28;21072;-57
2022/01/22 12:37:47;;;;;;;6.37;5.50;;;5.70;99.90;;;;;;5061273;28;20472;-56
2022/01/22 12:40:27;;;;;;;7.13;5.93;;;5.60;99.90;;;;;;5061354;28;20502;-55
2022/01/22 12:43:03;;;;;;;8.90;7.30;;;5.60;99.90;;;;;;5063148;28;20463;-62
2022/01/22 12:45:31;;;;;;;6.07;5.47;;;5.70;99.90;;;;;;5063250;28;20455;-59
2022/01/22 12:47:58;;;;;;;10.93;6.40;;;5.90;99.90;;;;;;5063694;28;20457;-59
2022/01/22 12:50:32;;;;;;;6.00;5.00;;;6.00;99.90;;;;;;5064364;28;20452;-60
2022/01/22 12:53:04;;;;;;;9.37;5.57;;;5.90;99.90;;;;;;5062329;28;20444;-59
2022/01/22 12:58:25;;;;;;;7.63;5.30;;;5.50;99.90;;;;;;5063536;28;20760;-62
2022/01/22 13:01:07;;;;;;;7.60;5.00;;;5.60;99.90;;;;;;5063464;28;20502;-60
2022/01/22 13:03:36;;;;;;;6.43;5.20;;;5.60;99.90;;;;;;5062412;28;20448;-61
2022/01/22 13:06:05;;;;;;;6.60;6.00;;;5.50;99.90;;;;;;5060505;28;20459;-61
2022/01/22 13:08:35;;;;;;;7.10;4.83;;;5.60;99.90;;;;;;5062026;28;20748;-58
2022/01/22 13:11:07;;;;;;;6.30;5.50;;;5.60;99.90;;;;;;5064886;28;20480;-58
2022/01/22 13:13:35;;;;;;;7.33;5.80;;;5.70;99.90;;;;;;5066091;28;20457;-58
2022/01/22 13:16:05;;;;;;;6.20;5.60;;;5.60;99.90;;;;;;5065348;28;20499;-62
2022/01/22 13:18:49;;;;;;;7.27;6.53;;;5.60;99.90;;;;;;5066088;28;20967;-63
2022/01/22 13:21:20;;;;;;;10.80;6.60;;;5.60;99.90;;;;;;5066528;28;20868;-60
2022/01/22 13:24:00;;;;;;;7.10;6.20;;;5.40;99.90;;;;;;5067712;28;20456;-60
2022/01/22 13:26:42;;;;;;;8.13;6.80;;;5.50;99.90;;;;;;5066610;28;20522;-61
2022/01/22 13:29:20;;;;;;;6.67;6.00;;;5.40;99.90;;;;;;5066816;28;20534;-61
2022/01/22 13:32:10;;;;;;;9.20;6.33;;;5.30;99.90;;;;;;5066769;28;20494;-58
2022/01/22 13:41:06;;;;;;;7.43;6.37;;;5.30;99.90;;;;;;5067195;28;20835;-60
2022/01/22 13:49:12;;;;;;;7.23;6.53;;;5.40;99.90;;;;;;5066319;28;20443;-57
2022/01/22 13:51:40;;;;;;;8.80;6.43;;;5.50;99.90;;;;;;5066470;28;20472;-61
2022/01/22 13:54:09;;;;;;;7.57;6.30;;;5.60;99.90;;;;;;5066982;28;20460;-59
2022/01/22 13:56:50;;;;;;;7.23;6.57;;;5.60;99.90;;;;;;5066159;28;20814;-57
2022/01/22 13:59:19;;;;;;;8.23;7.43;;;5.70;99.90;;;;;;5065524;28;20448;-58
2022/01/22 14:02:07;;;;;;;7.30;6.63;;;5.80;99.90;;;;;;5065298;28;20638;-58
2022/01/22 14:04:47;;;;;;;10.80;7.00;;;5.70;99.90;;;;;;5066645;28;20456;-58
2022/01/22 14:07:31;;;;;;;10.17;8.17;;;5.70;99.90;;;;;;5066071;28;20454;-57
2022/01/22 14:10:02;;;;;;;9.37;8.47;;;5.80;99.90;;;;;;5065881;28;20444;-56
2022/01/22 14:12:34;;;;;;;13.13;7.97;;;5.70;99.90;;;;;;5066019;28;20509;-54
2022/01/22 14:15:10;;;;;;;9.47;7.50;;;5.70;99.90;;;;;;5066541;28;20447;-52
2022/01/22 14:17:53;;;;;;;9.83;8.37;;;5.70;99.90;;;;;;5065842;28;20482;-55
2022/01/22 14:20:26;;;;;;;9.57;8.67;;;5.40;99.90;;;;;;5065017;28;20456;-55
2022/01/22 14:22:55;;;;;;;12.60;7.87;;;5.40;99.90;;;;;;5065063;28;20459;-57
2022/01/22 14:25:25;;;;;;;7.43;6.47;;;5.20;99.90;;;;;;5065871;28;20451;-57
2022/01/22 14:27:57;;;;;;;12.67;8.17;;;5.40;99.90;;;;;;5065776;28;20537;-57
2022/01/22 14:30:35;;;;;;;10.80;7.70;;;5.60;99.90;;;;;;5066255;28;20945;-59
2022/01/22 14:33:02;;;;;;;13.53;8.37;;;5.50;99.90;;;;;;5065316;28;20825;-58